createdAt,value
2023-05-09T00:00:57.283Z,0.00
2023-05-09T00:01:56.286Z,0.00
2023-05-09T00:02:56.209Z,0.00
2023-05-09T00:03:56.260Z,0.00
2023-05-09T00:04:56.242Z,0.00
2023-05-09T00:05:56.232Z,0.00
2023-05-09T00:06:56.189Z,0.00
2023-05-09T00:07:56.140Z,0.00
2023-05-09T00:08:56.157Z,0.00
2023-05-09T00:09:56.783Z,0.00
2023-05-09T00:10:56.190Z,0.00
2023-05-09T00:11:56.134Z,0.00
2023-05-09T00:12:56.144Z,0.00
2023-05-09T00:13:56.130Z,0.00
2023-05-09T00:14:56.103Z,0.00
2023-05-09T00:15:57.113Z,0.00
2023-05-09T00:16:56.184Z,0.00
2023-05-09T00:17:56.075Z,0.00
2023-05-09T00:18:56.035Z,0.00
2023-05-09T00:19:56.099Z,0.00
2023-05-09T00:20:56.080Z,0.00
2023-05-09T00:21:56.031Z,0.00
2023-05-09T00:22:56.027Z,0.00
2023-05-09T00:23:56.880Z,0.00
2023-05-09T00:24:55.962Z,0.00
2023-05-09T00:25:55.965Z,0.00
2023-05-09T00:26:55.980Z,0.00
2023-05-09T00:27:55.973Z,0.00
2023-05-09T00:28:55.957Z,0.00
2023-05-09T00:29:56.011Z,0.00
2023-05-09T00:30:55.944Z,0.00
2023-05-09T00:31:55.912Z,0.00
2023-05-09T00:32:56.909Z,0.00
2023-05-09T00:33:55.909Z,0.00
2023-05-09T00:34:55.923Z,0.00
2023-05-09T00:35:55.880Z,0.00
2023-05-09T00:36:55.840Z,0.00
2023-05-09T00:37:55.815Z,0.00
2023-05-09T00:38:55.834Z,0.00
2023-05-09T00:39:55.856Z,0.00
2023-05-09T00:40:55.866Z,0.00
2023-05-09T00:41:55.855Z,0.00
2023-05-09T00:42:55.951Z,0.00
2023-05-09T00:43:55.800Z,0.00
2023-05-09T00:44:55.825Z,0.00
2023-05-09T00:45:55.819Z,0.00
2023-05-09T00:46:55.752Z,0.00
2023-05-09T00:47:55.859Z,0.00
2023-05-09T00:48:56.700Z,0.00
2023-05-09T00:49:55.673Z,0.00
2023-05-09T00:50:56.729Z,0.00
2023-05-09T00:51:55.757Z,0.00
2023-05-09T00:52:55.725Z,0.00
2023-05-09T00:53:56.384Z,0.00
2023-05-09T00:54:55.741Z,0.00
2023-05-09T00:55:55.721Z,0.00
2023-05-09T00:56:55.679Z,0.00
2023-05-09T00:57:55.893Z,0.00
2023-05-09T00:58:55.626Z,0.00
2023-05-09T00:59:55.603Z,0.00
2023-05-09T01:00:56.346Z,0.00
2023-05-09T01:01:55.682Z,0.00
2023-05-09T01:02:55.686Z,0.00
2023-05-09T01:03:55.635Z,0.00
2023-05-09T01:04:55.739Z,0.00
2023-05-09T01:05:55.607Z,0.00
2023-05-09T01:06:55.536Z,0.00
2023-05-09T01:07:55.529Z,0.00
2023-05-09T01:08:55.518Z,0.00
2023-05-09T01:09:55.508Z,0.00
2023-05-09T01:10:55.534Z,0.00
2023-05-09T01:11:55.600Z,0.00
2023-05-09T01:12:55.551Z,0.00
2023-05-09T01:13:55.508Z,0.00
2023-05-09T01:14:55.550Z,0.00
2023-05-09T01:15:55.607Z,0.00
2023-05-09T01:16:55.560Z,0.00
2023-05-09T01:17:55.570Z,0.00
2023-05-09T01:18:56.210Z,0.00
2023-05-09T01:19:55.422Z,0.00
2023-05-09T01:20:55.484Z,0.00
2023-05-09T01:21:55.407Z,0.00
2023-05-09T01:22:55.359Z,0.00
2023-05-09T01:23:55.426Z,0.00
2023-05-09T01:24:55.363Z,0.00
2023-05-09T01:25:55.433Z,0.00
2023-05-09T01:26:55.363Z,0.00
2023-05-09T01:27:56.187Z,0.00
2023-05-09T01:28:55.280Z,0.00
2023-05-09T01:29:55.346Z,0.00
2023-05-09T01:30:55.434Z,0.00
2023-05-09T01:31:55.356Z,0.00
2023-05-09T01:32:55.409Z,0.00
2023-05-09T01:33:55.347Z,0.00
2023-05-09T01:34:55.369Z,0.00
2023-05-09T01:35:55.251Z,0.00
2023-05-09T01:36:55.251Z,0.00
2023-05-09T01:37:55.239Z,0.00
2023-05-09T01:38:55.259Z,0.00
2023-05-09T01:39:55.330Z,0.00
2023-05-09T01:40:55.249Z,0.00
2023-05-09T01:41:55.287Z,0.00
2023-05-09T01:42:55.199Z,0.00
2023-05-09T01:43:55.321Z,0.00
2023-05-09T01:44:55.183Z,0.00
2023-05-09T01:45:55.154Z,0.00
2023-05-09T01:46:55.212Z,0.00
2023-05-09T01:47:55.166Z,0.00
2023-05-09T01:48:55.133Z,0.00
2023-05-09T01:49:55.143Z,0.00
2023-05-09T01:50:55.145Z,0.00
2023-05-09T01:51:55.090Z,0.00
2023-05-09T01:52:55.119Z,0.00
2023-05-09T01:53:55.146Z,0.00
2023-05-09T01:54:55.049Z,0.00
2023-05-09T01:55:55.066Z,0.00
2023-05-09T01:56:55.016Z,0.00
2023-05-09T01:57:55.095Z,0.00
2023-05-09T01:58:55.011Z,0.00
2023-05-09T01:59:55.043Z,0.00
2023-05-09T02:00:56.082Z,0.00
2023-05-09T02:01:55.026Z,0.00
2023-05-09T02:02:55.262Z,0.00
2023-05-09T02:03:55.001Z,0.00
2023-05-09T02:04:55.016Z,0.00
2023-05-09T02:05:55.029Z,0.00
2023-05-09T02:06:55.005Z,0.00
2023-05-09T02:07:54.937Z,0.00
2023-05-09T02:08:54.965Z,0.00
2023-05-09T02:09:54.911Z,0.00
2023-05-09T02:10:54.916Z,0.00
2023-05-09T02:11:54.977Z,0.00
2023-05-09T02:12:54.920Z,0.00
2023-05-09T02:13:54.805Z,0.00
2023-05-09T02:14:54.859Z,0.00
2023-05-09T02:15:54.866Z,0.00
2023-05-09T02:16:55.855Z,0.00
2023-05-09T02:17:54.866Z,0.00
2023-05-09T02:18:54.845Z,0.00
2023-05-09T02:21:17.795Z,0.00
2023-05-09T02:21:19.395Z,0.00
2023-05-09T02:22:19.383Z,0.00
2023-05-09T02:23:19.386Z,0.00
2023-05-09T02:24:19.392Z,0.00
2023-05-09T02:25:19.345Z,0.00
2023-05-09T02:26:19.364Z,0.00
2023-05-09T02:27:19.353Z,0.00
2023-05-09T02:28:19.361Z,0.00
2023-05-09T02:29:19.314Z,0.00
2023-05-09T02:30:19.352Z,0.00
2023-05-09T02:31:19.397Z,0.00
2023-05-09T02:32:19.350Z,0.00
2023-05-09T02:33:19.293Z,0.00
2023-05-09T02:34:19.304Z,0.00
2023-05-09T02:35:19.301Z,0.00
2023-05-09T02:36:19.262Z,0.00
2023-05-09T02:37:19.305Z,0.00
2023-05-09T02:38:19.825Z,0.00
2023-05-09T02:39:19.233Z,0.00
2023-05-09T02:40:19.235Z,0.00
2023-05-09T02:41:19.208Z,0.00
2023-05-09T02:42:19.156Z,0.00
2023-05-09T02:43:19.177Z,0.00
2023-05-09T02:44:19.232Z,0.00
2023-05-09T02:45:19.836Z,0.00
2023-05-09T02:46:19.264Z,0.00
2023-05-09T02:47:19.188Z,0.00
2023-05-09T02:48:19.106Z,0.00
2023-05-09T02:49:31.563Z,0.00
2023-05-09T02:50:21.138Z,0.00
2023-05-09T02:51:19.127Z,0.00
2023-05-09T02:52:19.078Z,0.00
2023-05-09T02:53:19.147Z,0.00
2023-05-09T02:54:19.144Z,0.00
2023-05-09T02:55:19.083Z,0.00
2023-05-09T02:56:19.055Z,0.00
2023-05-09T02:57:19.043Z,0.00
2023-05-09T02:58:19.050Z,0.00
2023-05-09T02:59:19.798Z,0.00
2023-05-09T03:00:19.024Z,0.00
2023-05-09T03:01:19.081Z,0.00
2023-05-09T03:02:19.142Z,0.00
2023-05-09T03:03:19.307Z,0.00
2023-05-09T03:04:18.973Z,0.00
2023-05-09T03:05:18.960Z,0.00
2023-05-09T03:06:19.011Z,0.00
2023-05-09T03:07:18.950Z,0.00
2023-05-09T03:08:19.380Z,0.00
2023-05-09T03:09:18.975Z,0.00
2023-05-09T03:10:19.038Z,0.00
2023-05-09T03:11:18.922Z,0.00
2023-05-09T03:12:18.902Z,0.00
2023-05-09T03:13:18.956Z,0.00
2023-05-09T03:14:18.859Z,0.00
2023-05-09T03:15:18.886Z,0.00
2023-05-09T03:16:18.902Z,0.00
2023-05-09T03:17:18.861Z,0.00
2023-05-09T03:18:18.905Z,0.00
2023-05-09T03:19:18.855Z,0.00
2023-05-09T03:20:18.851Z,0.00
2023-05-09T03:21:18.862Z,0.00
2023-05-09T03:22:18.971Z,0.00
2023-05-09T03:23:18.819Z,0.00
2023-05-09T03:24:18.779Z,0.00
2023-05-09T03:25:18.825Z,0.00
2023-05-09T03:26:18.775Z,0.00
2023-05-09T03:27:18.740Z,0.00
2023-05-09T03:28:18.732Z,0.00
2023-05-09T03:29:18.714Z,0.00
2023-05-09T03:30:18.683Z,0.00
2023-05-09T03:31:18.820Z,0.00
2023-05-09T03:32:18.678Z,0.00
2023-05-09T03:33:18.759Z,0.00
2023-05-09T03:34:18.741Z,0.00
2023-05-09T03:35:18.715Z,0.00
2023-05-09T03:36:18.742Z,0.00
2023-05-09T03:37:18.668Z,0.00
2023-05-09T03:38:18.744Z,0.00
2023-05-09T03:39:18.666Z,0.00
2023-05-09T03:40:18.640Z,5.62
2023-05-09T03:41:18.732Z,5.62
2023-05-09T03:42:18.635Z,5.62
2023-05-09T03:43:18.727Z,5.62
2023-05-09T03:44:18.621Z,5.62
2023-05-09T03:45:18.604Z,5.62
2023-05-09T03:46:18.599Z,5.62
2023-05-09T03:47:18.552Z,5.62
2023-05-09T03:48:18.513Z,5.62
2023-05-09T03:49:18.504Z,11.25
2023-05-09T03:50:18.561Z,11.25
2023-05-09T03:51:18.564Z,11.25
2023-05-09T03:52:18.480Z,11.25
2023-05-09T03:53:18.466Z,11.25
2023-05-09T03:54:18.493Z,11.25
2023-05-09T03:55:18.532Z,16.88
2023-05-09T03:56:18.431Z,16.88
2023-05-09T03:57:18.558Z,16.88
2023-05-09T03:58:18.439Z,16.88
2023-05-09T03:59:18.468Z,16.88
2023-05-09T04:00:18.407Z,22.50
2023-05-09T04:01:18.462Z,22.50
2023-05-09T04:02:18.427Z,22.50
2023-05-09T04:03:23.682Z,22.50
2023-05-09T04:05:42.695Z,22.50
2023-05-09T04:05:44.306Z,28.12
2023-05-09T04:06:44.355Z,28.12
2023-05-09T04:07:44.264Z,28.12
2023-05-09T04:08:44.293Z,28.12
2023-05-09T04:09:44.287Z,28.12
2023-05-09T04:10:44.325Z,33.75
2023-05-09T04:11:44.273Z,33.75
2023-05-09T04:12:44.366Z,33.75
2023-05-09T04:13:44.829Z,39.38
2023-05-09T04:14:45.633Z,39.38
2023-05-09T04:15:44.183Z,39.38
2023-05-09T04:16:44.372Z,45.00
2023-05-09T04:17:44.348Z,39.38
2023-05-09T04:18:44.187Z,39.38
2023-05-09T04:19:44.169Z,39.38
2023-05-09T04:20:44.169Z,45.00
2023-05-09T04:21:44.154Z,45.00
2023-05-09T04:22:46.700Z,45.00
2023-05-09T04:23:44.107Z,50.62
2023-05-09T04:24:44.176Z,50.62
2023-05-09T04:25:44.062Z,50.62
2023-05-09T04:26:44.081Z,50.62
2023-05-09T04:27:44.052Z,50.62
2023-05-09T04:28:44.119Z,50.62
2023-05-09T04:29:44.040Z,50.62
2023-05-09T04:30:44.034Z,50.62
2023-05-09T04:31:44.894Z,50.62
2023-05-09T04:32:44.089Z,50.62
2023-05-09T04:33:43.998Z,50.62
2023-05-09T04:34:43.989Z,50.62
2023-05-09T04:35:44.022Z,50.62
2023-05-09T04:36:44.751Z,50.62
2023-05-09T04:37:43.958Z,50.62
2023-05-09T04:38:44.041Z,50.62
2023-05-09T04:39:43.980Z,45.00
2023-05-09T04:40:44.096Z,50.62
2023-05-09T04:41:43.908Z,50.62
2023-05-09T04:42:43.945Z,50.62
2023-05-09T04:43:43.974Z,50.62
2023-05-09T04:44:43.959Z,56.25
2023-05-09T04:45:46.944Z,56.25
2023-05-09T04:46:43.929Z,56.25
2023-05-09T04:47:43.978Z,61.88
2023-05-09T04:48:43.892Z,61.88
2023-05-09T04:49:43.868Z,56.25
2023-05-09T04:50:43.882Z,61.88
2023-05-09T04:51:43.810Z,56.25
2023-05-09T04:52:43.844Z,50.62
2023-05-09T04:53:43.796Z,50.62
2023-05-09T04:54:44.094Z,50.62
2023-05-09T04:55:43.789Z,50.62
2023-05-09T04:56:43.787Z,50.62
2023-05-09T04:57:43.756Z,50.62
2023-05-09T04:58:43.753Z,50.62
2023-05-09T04:59:43.756Z,56.25
2023-05-09T05:00:43.887Z,56.25
2023-05-09T05:01:43.828Z,56.25
2023-05-09T05:02:43.713Z,56.25
2023-05-09T05:03:43.727Z,56.25
2023-05-09T05:04:43.735Z,61.88
2023-05-09T05:05:43.735Z,61.88
2023-05-09T05:06:44.238Z,61.88
2023-05-09T05:07:43.645Z,61.88
2023-05-09T05:08:43.647Z,61.88
2023-05-09T05:09:43.637Z,61.88
2023-05-09T05:10:43.684Z,67.50
2023-05-09T05:11:53.218Z,67.50
2023-05-09T05:12:45.618Z,67.50
2023-05-09T05:13:44.341Z,67.50
2023-05-09T05:14:47.916Z,67.50
2023-05-09T05:15:43.624Z,73.12
2023-05-09T05:18:15.666Z,73.12
2023-05-09T05:19:19.245Z,73.12
2023-05-09T05:20:17.244Z,73.12
2023-05-09T05:21:14.581Z,73.12
2023-05-09T05:22:15.899Z,78.75
2023-05-09T05:23:16.806Z,78.75
2023-05-09T05:24:14.531Z,84.38
2023-05-09T05:25:26.394Z,84.38
2023-05-09T05:27:55.145Z,90.00
2023-05-09T05:28:56.242Z,90.00
2023-05-09T05:30:01.776Z,90.00
2023-05-09T05:31:08.441Z,90.00
2023-05-09T05:32:02.521Z,90.00
2023-05-09T05:33:06.335Z,95.62
2023-05-09T05:34:04.741Z,95.62
2023-05-09T05:35:04.746Z,101.25
2023-05-09T05:36:03.374Z,106.88
2023-05-09T05:37:08.182Z,106.88
2023-05-09T05:38:21.949Z,112.50
2023-05-09T05:39:01.733Z,112.50
2023-05-09T05:40:00.378Z,112.50
2023-05-09T05:41:00.379Z,118.12
2023-05-09T05:41:59.174Z,118.12
2023-05-09T05:43:00.449Z,118.12
2023-05-09T05:44:02.117Z,118.12
2023-05-09T05:45:01.615Z,118.12
2023-05-09T05:46:08.272Z,123.75
2023-05-09T05:47:04.534Z,123.75
2023-05-09T05:47:59.894Z,118.12
2023-05-09T05:49:04.023Z,118.12
2023-05-09T05:50:07.394Z,112.50
2023-05-09T05:51:03.657Z,112.50
2023-05-09T05:51:54.185Z,112.50
2023-05-09T05:53:14.491Z,112.50
2023-05-09T05:54:07.162Z,118.12
2023-05-09T05:55:07.536Z,123.75
2023-05-09T05:56:28.862Z,151.88
2023-05-09T05:57:09.404Z,151.88
2023-05-09T05:58:07.230Z,163.12
2023-05-09T05:59:13.018Z,140.62
2023-05-09T06:00:12.782Z,151.88
2023-05-09T06:00:55.968Z,140.62
2023-05-09T06:02:00.227Z,140.62
2023-05-09T06:03:07.467Z,140.62
2023-05-09T06:04:23.487Z,140.62
2023-05-09T06:04:58.748Z,140.62
2023-05-09T06:05:58.731Z,146.25
2023-05-09T06:06:59.184Z,146.25
2023-05-09T06:07:52.122Z,151.88
2023-05-09T06:09:07.830Z,151.88
2023-05-09T06:10:00.218Z,180.00
2023-05-09T06:11:02.666Z,191.25
2023-05-09T06:11:58.904Z,163.12
2023-05-09T06:12:50.774Z,185.62
2023-05-09T06:13:50.749Z,163.12
2023-05-09T06:14:50.935Z,202.50
2023-05-09T06:15:50.648Z,180.00
2023-05-09T06:16:50.755Z,185.62
2023-05-09T06:17:50.740Z,196.88
2023-05-09T06:18:51.488Z,180.00
2023-05-09T06:19:50.634Z,174.38
2023-05-09T06:20:50.616Z,168.75
2023-05-09T06:21:50.624Z,163.12
2023-05-09T06:22:50.578Z,163.12
2023-05-09T06:24:02.075Z,163.12
2023-05-09T06:24:52.546Z,163.12
2023-05-09T06:25:50.605Z,163.12
2023-05-09T06:26:50.505Z,168.75
2023-05-09T06:27:50.558Z,180.00
2023-05-09T06:28:50.660Z,180.00
2023-05-09T06:29:50.612Z,180.00
2023-05-09T06:30:50.564Z,180.00
2023-05-09T06:31:50.559Z,174.38
2023-05-09T06:32:50.600Z,168.75
2023-05-09T06:33:50.555Z,174.38
2023-05-09T06:34:50.541Z,174.38
2023-05-09T06:35:50.527Z,174.38
2023-05-09T06:50:32.984Z,191.25
2023-05-09T06:56:36.686Z,281.25
2023-05-09T07:03:18.802Z,213.75
2023-05-09T07:11:04.472Z,241.88
2023-05-09T07:12:08.517Z,230.62
2023-05-09T07:15:54.342Z,208.12
2023-05-09T07:17:18.104Z,208.12
2023-05-09T07:17:55.584Z,202.50
2023-05-09T07:20:19.708Z,202.50
2023-05-09T07:20:21.623Z,202.50
2023-05-09T07:21:21.558Z,196.88
2023-05-09T07:22:21.613Z,202.50
2023-05-09T07:23:21.362Z,208.12
2023-05-09T07:25:45.572Z,208.12
2023-05-09T07:25:47.200Z,208.12
2023-05-09T07:26:47.342Z,208.12
2023-05-09T07:27:47.181Z,202.50
2023-05-09T07:30:22.421Z,275.62
2023-05-09T07:30:27.242Z,275.62
2023-05-09T07:31:25.078Z,275.62
2023-05-09T07:33:49.509Z,275.62
2023-05-09T07:33:51.941Z,270.00
2023-05-09T07:36:16.277Z,270.00
2023-05-09T07:36:17.957Z,264.38
2023-05-09T07:42:11.879Z,247.50
2023-05-09T07:43:11.933Z,247.50
2023-05-09T07:46:41.116Z,247.50
2023-05-09T07:49:03.555Z,219.38
2023-05-09T07:49:06.957Z,258.75
2023-05-09T07:53:00.408Z,258.75
2023-05-09T07:54:00.706Z,264.38
2023-05-09T07:55:01.084Z,264.38
2023-05-09T07:56:00.251Z,264.38
2023-05-09T07:57:01.207Z,264.38
2023-05-09T07:58:01.516Z,258.75
2023-05-09T07:59:02.220Z,258.75
2023-05-09T08:00:06.596Z,208.12
2023-05-09T08:01:07.445Z,202.50
2023-05-09T08:02:05.303Z,208.12
2023-05-09T08:03:01.929Z,264.38
2023-05-09T08:04:02.522Z,230.62
2023-05-09T08:05:02.796Z,230.62
2023-05-09T08:06:01.396Z,219.38
2023-05-09T08:09:00.794Z,202.50
2023-05-09T08:10:00.981Z,208.12
2023-05-09T08:11:01.325Z,208.12
2023-05-09T08:12:01.086Z,208.12
2023-05-09T08:13:10.086Z,230.62
2023-05-09T08:14:00.669Z,213.75
2023-05-09T08:15:00.647Z,213.75
2023-05-09T08:16:00.767Z,219.38
2023-05-09T08:17:00.572Z,219.38
2023-05-09T08:18:00.944Z,219.38
2023-05-09T08:19:01.273Z,219.38
2023-05-09T08:20:00.567Z,225.00
2023-05-09T08:21:00.611Z,225.00
2023-05-09T08:22:02.072Z,225.00
2023-05-09T08:23:00.657Z,225.00
2023-05-09T08:24:03.422Z,225.00
2023-05-09T08:25:02.339Z,230.62
2023-05-09T08:26:02.132Z,236.25
2023-05-09T08:27:05.780Z,241.88
2023-05-09T08:28:07.522Z,241.88
2023-05-09T08:29:01.838Z,247.50
2023-05-09T08:30:02.882Z,247.50
2023-05-09T08:31:12.389Z,253.12
2023-05-09T08:32:02.271Z,258.75
2023-05-09T08:33:05.409Z,270.00
2023-05-09T08:34:01.619Z,281.25
2023-05-09T08:35:03.939Z,292.50
2023-05-09T08:36:15.384Z,303.75
2023-05-09T08:37:06.528Z,315.00
2023-05-09T08:38:03.186Z,320.62
2023-05-09T08:39:02.569Z,331.88
2023-05-09T08:40:04.139Z,337.50
2023-05-09T08:41:02.902Z,337.50
2023-05-09T08:42:04.498Z,343.12
2023-05-09T08:43:02.029Z,365.62
2023-05-09T08:44:03.261Z,348.75
2023-05-09T08:45:02.856Z,365.62
2023-05-09T08:46:03.039Z,354.38
2023-05-09T08:47:06.130Z,343.12
2023-05-09T08:48:03.288Z,343.12
2023-05-09T08:49:02.492Z,343.12
2023-05-09T08:50:05.926Z,348.75
2023-05-09T08:51:01.820Z,354.38
2023-05-09T08:54:27.268Z,365.62
2023-05-09T08:55:38.322Z,354.38
2023-05-09T08:56:32.274Z,348.75
2023-05-09T08:57:29.649Z,343.12
2023-05-09T08:58:30.412Z,337.50
2023-05-09T08:59:29.664Z,337.50
2023-05-09T09:00:29.990Z,343.12
2023-05-09T09:01:35.634Z,348.75
2023-05-09T09:02:33.659Z,393.75
2023-05-09T09:03:29.108Z,371.25
2023-05-09T09:04:28.406Z,343.12
2023-05-09T09:06:29.300Z,320.62
2023-05-09T09:07:29.931Z,309.38
2023-05-09T09:08:30.326Z,309.38
2023-05-09T09:09:42.574Z,320.62
2023-05-09T09:10:28.505Z,320.62
2023-05-09T09:11:29.089Z,365.62
2023-05-09T09:12:34.662Z,348.75
2023-05-09T09:13:28.379Z,343.12
2023-05-09T09:15:00.960Z,331.88
2023-05-09T09:15:28.498Z,326.25
2023-05-09T09:16:34.473Z,320.62
2023-05-09T09:17:36.760Z,326.25
2023-05-09T09:18:30.098Z,326.25
2023-05-09T09:19:28.473Z,326.25
2023-05-09T09:23:15.399Z,309.38
2023-05-09T09:24:16.782Z,320.62
2023-05-09T09:25:20.374Z,320.62
2023-05-09T09:26:22.052Z,326.25
2023-05-09T09:27:16.644Z,331.88
2023-05-09T09:28:16.669Z,331.88
2023-05-09T09:29:16.471Z,337.50
2023-05-09T09:31:47.438Z,331.88
2023-05-09T09:31:55.972Z,331.88
2023-05-09T09:34:55.327Z,331.88
2023-05-09T09:34:57.070Z,331.88
2023-05-09T09:35:57.321Z,337.50
2023-05-09T09:36:58.416Z,343.12
2023-05-09T09:37:58.505Z,343.12
2023-05-09T09:39:00.094Z,343.12
2023-05-09T09:39:57.951Z,343.12
2023-05-09T09:40:58.088Z,343.12
2023-05-09T09:41:58.287Z,343.12
2023-05-09T09:42:57.010Z,343.12
2023-05-09T09:43:59.309Z,343.12
2023-05-09T09:44:59.709Z,343.12
2023-05-09T09:45:57.285Z,343.12
2023-05-09T09:47:05.511Z,348.75
2023-05-09T09:47:58.754Z,343.12
2023-05-09T09:48:56.903Z,348.75
2023-05-09T09:50:02.475Z,348.75
2023-05-09T09:50:56.921Z,354.38
2023-05-09T09:53:21.002Z,343.12
2023-05-09T09:53:22.594Z,371.25
2023-05-09T09:54:23.241Z,371.25
2023-05-09T09:55:22.694Z,393.75
2023-05-09T09:57:47.786Z,399.38
2023-05-09T09:57:49.566Z,405.00
2023-05-09T09:58:49.616Z,416.25
2023-05-09T09:59:49.402Z,416.25
2023-05-09T10:00:57.281Z,405.00
2023-05-09T10:01:49.715Z,405.00
2023-05-09T10:02:49.806Z,405.00
2023-05-09T10:03:54.245Z,399.38
2023-05-09T10:04:50.459Z,405.00
2023-05-09T10:07:17.934Z,393.75
2023-05-09T10:07:20.821Z,421.88
2023-05-09T10:08:19.639Z,365.62
2023-05-09T10:10:43.824Z,343.12
2023-05-09T10:10:45.452Z,326.25
2023-05-09T10:11:45.448Z,326.25
2023-05-09T10:12:45.857Z,303.75
2023-05-09T10:15:45.515Z,292.50
2023-05-09T10:15:54.303Z,298.12
2023-05-09T10:16:46.067Z,286.88
2023-05-09T10:17:51.024Z,292.50
2023-05-09T10:18:45.877Z,315.00
2023-05-09T10:19:47.875Z,326.25
2023-05-09T10:20:45.044Z,337.50
2023-05-09T10:21:46.411Z,326.25
2023-05-09T10:22:49.957Z,320.62
2023-05-09T10:23:45.225Z,320.62
2023-05-09T10:24:45.125Z,365.62
2023-05-09T10:25:45.003Z,399.38
2023-05-09T10:26:44.818Z,320.62
2023-05-09T10:27:44.757Z,320.62
2023-05-09T10:28:45.043Z,315.00
2023-05-09T10:32:30.688Z,309.38
2023-05-09T10:33:17.865Z,337.50
2023-05-09T10:33:39.502Z,298.12
2023-05-09T10:34:37.210Z,270.00
2023-05-09T10:35:38.279Z,241.88
2023-05-09T10:36:40.727Z,225.00
2023-05-09T10:37:38.503Z,213.75
2023-05-09T10:38:40.034Z,208.12
2023-05-09T10:39:37.859Z,202.50
2023-05-09T10:40:38.592Z,191.25
2023-05-09T10:43:02.974Z,191.25
2023-05-09T10:43:04.630Z,191.25
2023-05-09T10:44:05.157Z,202.50
2023-05-09T10:45:07.020Z,225.00
2023-05-09T10:46:04.903Z,337.50
2023-05-09T10:47:07.214Z,303.75
2023-05-09T10:48:05.065Z,326.25
2023-05-09T10:49:04.641Z,303.75
2023-05-09T10:50:05.534Z,258.75
2023-05-09T10:51:08.979Z,270.00
2023-05-09T10:52:04.999Z,348.75
2023-05-09T10:53:04.597Z,303.75
2023-05-09T10:54:04.627Z,292.50
2023-05-09T10:55:05.074Z,292.50
2023-05-09T10:56:05.999Z,309.38
2023-05-09T10:57:04.765Z,354.38
2023-05-09T10:58:04.626Z,399.38
2023-05-09T10:59:04.839Z,348.75
2023-05-09T11:00:05.528Z,371.25
2023-05-09T11:01:04.470Z,388.12
2023-05-09T11:02:04.906Z,382.50
2023-05-09T11:03:04.628Z,427.50
2023-05-09T11:04:04.524Z,433.12
2023-05-09T11:05:04.440Z,506.25
2023-05-09T11:06:04.490Z,461.25
2023-05-09T11:07:04.472Z,500.62
2023-05-09T11:08:04.471Z,444.38
2023-05-09T11:09:04.632Z,483.75
2023-05-09T11:10:04.533Z,483.75
2023-05-09T11:11:04.460Z,500.62
2023-05-09T11:12:07.795Z,528.75
2023-05-09T11:13:04.663Z,500.62
2023-05-09T11:14:04.504Z,444.38
2023-05-09T11:15:05.384Z,427.50
2023-05-09T11:16:04.456Z,421.88
2023-05-09T11:17:04.415Z,450.00
2023-05-09T11:19:34.370Z,472.50
